Huvudsida
METAR-TAF:

METAR-TAF

Flygplatser :

Los Angeles International Airport

Los Angeles, Kalifornien, USA

latitud: 33-56-17N, longitud: 118-23-20W, höjd: 38 m

Aktuellt väderrapport

Denna rapport gjordes för 46 minuter sedan, klockan 23:53 UTC
Vind 10 kt från väst/nordväst
Temperatur 23°C
Fuktighet 20%
Tryck 1020 hPa
Sikt: 16.1 km
Få moln på en höjd av 25000 ft

METAR: KLAX 142353Z 29010KT 10SM FEW250 23/M01 A3013 RMK AO2 SLP201 T02281011 10267 20228 56011

Tid: 16:39 (00:39 UTC)

Väderprognos

Denna rapport gjordes för 50 minuter sedan, klockan 23:49 UTC
Prognos gäller från 15 kl. 00 UTC till 16 kl. 06 UTC
Vind 8 kt från väst
Sikt: 10 km
Klar himmel
Från 15 kl. 0500 UTC
Vind 4 kt från ost/nordost
Sikt: 10 km
Klar himmel
Från 15 kl. 2100 UTC
Vind 8 kt från väst
Sikt: 10 km
Spridda moln på en höjd av 25000 ft

TAF: KLAX 142349Z 1500/1606 26008KT P6SM SKC FM150500 07004KT P6SM SKC FM152100 26008KT P6SM SCT250

Aktuella väderrapporter och prognoser från 4000 flygplatser (METAR- och TAF-rapporter).

De tillgängliga stationerna syns som gula och röda prickar på kartan.

För musen över prickarna för att se namnen på stationerna.

Klicka sedan för att få väderrapporter och prognoser.

För att ändra kartan: Klicka på de gröna knapparna med ett svart kors på för att zooma in; den gröna knappen med ett streck på för att zooma ut; eller på de gröna pilarna för angränsande kartor.


METAR-TAF: